»·PEaware :: RNGR701 KNGP-KCLL

RNGR701 :: KNGP-KCLL

FLIGHT INFORMATION

Flight Status: Arrived
Operator: Unknown
More flights by this operator :: More flights under this callsign
Pilot: USN Avenger (31125)
Aircraft: BEECH AIRCRAFT T-6A TEXAN
(TEX2)
More flights by this aircraft type
Origin: KNGP Corpus Christi NAS/Truax
United States
Destination: KCLL Easterwood
United States
More flights between these airports :: More routes between these airports
Route: +WORRY V13 PSX IDU
File this flight plan on PilotEdge
Remarks:
Altitude:
(Current/Filed)
15,000ft
Speed:
(Current/Filed)
0kts
Departed: 09-Sep-20 11:38 AM
Arrived: 09-Sep-20 12:21 PM
Distance/Time
Traveled:
0nm/0:42
Distance/Time
To Go:
Arrived

Flight Plot

Page will automatically refresh every two minutes.

Flight plan parsing failed; only flown route is shown


Map Options




Map Legend


Flown Route
Filed Route
Departure Airport
Arrival Airport
Navaid (VOR, NDB)
Fix

Horizontal Profiles

Position Reports

Time Latitude Longitude Heading Altitude Ground
Speed
09-Sep-20 11:31 27.694614 -97.283013 249 22ft 17kts
09-Sep-20 11:32 27.698280 -97.285165 65 22ft 14kts
09-Sep-20 11:33 27.698150 -97.284697 158 22ft 0kts
09-Sep-20 11:34 27.698144 -97.284694 158 22ft 0kts
09-Sep-20 11:35 27.699025 -97.287146 225 22ft 17kts
09-Sep-20 11:36 27.696053 -97.290448 199 22ft 21kts
09-Sep-20 11:37 27.689828 -97.285567 134 57ft 130kts
09-Sep-20 11:38 27.654251 -97.248028 140 1725ft 202kts
09-Sep-20 11:39 27.664477 -97.208387 15 4770ft 203kts
09-Sep-20 11:40 27.697878 -97.209066 326 4912ft 257kts
09-Sep-20 11:41 27.700868 -97.211385 325 5015ft 252kts
09-Sep-20 11:42 27.700868 -97.211385 325 5015ft 252kts
09-Sep-20 11:43 27.700868 -97.211385 325 5015ft 252kts
09-Sep-20 11:44 27.723222 -97.218628 351 5182ft 255kts
09-Sep-20 11:45 27.797938 -97.230479 354 5230ft 276kts
09-Sep-20 11:46 27.838310 -97.233802 357 5237ft 278kts
09-Sep-20 11:47 27.906472 -97.233313 357 8225ft 223kts
09-Sep-20 11:49 27.965135 -97.233178 355 11743ft 218kts
09-Sep-20 11:50 28.031443 -97.240769 354 13166ft 271kts
09-Sep-20 11:51 28.110814 -97.246181 8 13445ft 287kts
09-Sep-20 11:52 28.173176 -97.200426 36 15090ft 288kts
09-Sep-20 11:53 28.196351 -97.180637 37 15097ft 296kts
09-Sep-20 11:54 28.196351 -97.180637 37 15097ft 296kts
09-Sep-20 11:55 28.196351 -97.180637 37 15097ft 296kts
09-Sep-20 11:56 28.197717 -97.179438 37 15101ft 296kts
09-Sep-20 11:57 28.197717 -97.179438 37 15101ft 296kts
09-Sep-20 11:58 28.197717 -97.179438 37 15101ft 296kts
09-Sep-20 11:59 30.320525 -96.492792 37 15101ft 304kts
09-Sep-20 12:00 30.323802 -96.489893 37 15088ft 304kts
09-Sep-20 12:01 30.323802 -96.489893 37 15088ft 304kts
09-Sep-20 12:02 30.323802 -96.489893 37 15088ft 304kts
09-Sep-20 12:03 30.363963 -96.454694 37 15021ft 312kts
09-Sep-20 12:04 30.423850 -96.397749 42 9314ft 248kts
09-Sep-20 12:05 30.471158 -96.422897 302 5049ft 226kts
09-Sep-20 12:05 30.494064 -96.462639 304 4944ft 229kts
09-Sep-20 12:07 30.509642 -96.475590 345 5068ft 225kts
09-Sep-20 12:07 30.562469 -96.490289 343 5008ft 238kts
09-Sep-20 12:08 30.628365 -96.499248 345 5085ft 232kts
09-Sep-20 12:10 30.698061 -96.515704 351 2615ft 210kts
09-Sep-20 12:10 30.747970 -96.520105 43 2506ft 212kts
09-Sep-20 12:11 30.754764 -96.464631 91 2520ft 160kts
09-Sep-20 12:12 30.752351 -96.414580 145 2287ft 148kts
09-Sep-20 12:13 30.752351 -96.414580 145 2287ft 148kts
09-Sep-20 12:14 30.748316 -96.410917 137 2272ft 144kts
09-Sep-20 12:15 30.718821 -96.390133 160 2321ft 126kts
09-Sep-20 12:16 30.688173 -96.384762 175 1746ft 121kts
09-Sep-20 12:17 30.659250 -96.377219 168 2010ft 112kts
09-Sep-20 12:18 30.629155 -96.370584 167 1203ft 103kts
09-Sep-20 12:19 30.600274 -96.363741 168 451ft 107kts
09-Sep-20 12:20 30.586809 -96.360604 170 324ft 13kts
09-Sep-20 12:21 30.582413 -96.358940 76 324ft 0kts
09-Sep-20 12:22 30.587314 -96.358766 5 324ft 28kts
09-Sep-20 12:23 30.589945 -96.359188 240 324ft 0kts
09-Sep-20 12:24 30.588982 -96.361104 237 324ft 12kts
09-Sep-20 12:25 30.586199 -96.365475 227 299ft 22kts
09-Sep-20 12:26 30.583888 -96.365819 147 292ft 3kts
09-Sep-20 12:27 30.583794 -96.365749 147 292ft 0kts
09-Sep-20 12:28 30.583791 -96.365747 147 292ft 0kts
09-Sep-20 12:29 30.583787 -96.365744 147 292ft 0kts
09-Sep-20 12:30 30.583784 -96.365742 146 292ft 0kts
09-Sep-20 12:31 27.697267 -97.285889 147 18ft 0kts
09-Sep-20 12:32 27.697217 -97.285853 147 22ft 0kts
09-Sep-20 12:33 27.697217 -97.285853 147 22ft 0kts

Navigation Log

Ident Type
Flight plan parsing failed, navigation log unavailable